Time;durP1;ratioP1;P1;durP2;ratioP2;P2;SDS_P1;SDS_P2;PMS_P1;PMS_P2;Temp;Humidity;BMP_temperature;BMP_pressure;BME280_temperature;BME280_humidity;BME280_pressure;Samples;Min_cycle;Max_cycle;Signal;HPM_P1;HPM_P2
2022/03/31 00:00:58;;;;;;;1.42;1.30;;;;;;;27.06;28.11;94803.16;4939875;28;20035;-33
2022/03/31 00:03:23;;;;;;;3.00;1.10;;;;;;;27.06;28.19;94800.53;4948748;28;20031;-33
2022/03/31 00:05:49;;;;;;;1.55;1.15;;;;;;;27.06;28.04;94792.66;4944125;28;20042;-32
2022/03/31 00:08:17;;;;;;;1.58;1.13;;;;;;;27.06;28.29;94790.03;4944086;28;20130;-33
2022/03/31 00:10:43;;;;;;;2.13;1.13;;;;;;;27.05;28.30;94798.03;4942490;28;20034;-28
2022/03/31 00:13:11;;;;;;;1.20;1.10;;;;;;;27.04;28.26;94786.69;4949632;28;20130;-35
2022/03/31 00:15:36;;;;;;;2.22;1.10;;;;;;;27.05;28.17;94777.84;4952507;28;20038;-37
2022/03/31 00:18:02;;;;;;;1.15;0.95;;;;;;;27.05;28.12;94785.75;4953332;28;20026;-31
2022/03/31 00:20:28;;;;;;;1.50;0.90;;;;;;;27.04;28.13;94776.16;4949253;28;20027;-29
2022/03/31 00:22:53;;;;;;;4.40;1.17;;;;;;;27.04;28.06;94776.16;4946063;28;20034;-31
2022/03/31 00:25:19;;;;;;;1.77;1.20;;;;;;;27.03;28.10;94774.53;4935565;28;20073;-34
2022/03/31 00:27:44;;;;;;;1.33;1.05;;;;;;;27.03;27.98;94768.44;4927556;28;20709;-34
2022/03/31 00:30:11;;;;;;;1.60;1.10;;;;;;;27.03;27.94;94768.44;4927567;28;20038;-30
2022/03/31 00:32:37;;;;;;;1.65;0.90;;;;;;;27.02;28.09;94764.97;4936378;28;20054;-36
2022/03/31 00:35:02;;;;;;;1.10;1.00;;;;;;;27.02;28.37;94764.13;4934531;28;20045;-34
2022/03/31 00:37:28;;;;;;;1.00;1.00;;;;;;;27.02;28.31;94758.88;4934730;28;21095;-37
2022/03/31 00:39:54;;;;;;;1.77;0.95;;;;;;;27.00;28.07;94756.38;4933257;28;20077;-33
2022/03/31 00:42:20;;;;;;;2.45;1.00;;;;;;;27.00;28.40;94754.59;4944129;28;20034;-35
2022/03/31 00:44:45;;;;;;;1.90;1.20;;;;;;;27.00;28.06;94759.00;4939511;28;20031;-36
2022/03/31 00:47:10;;;;;;;1.65;1.02;;;;;;;27.01;28.38;94758.06;4946035;28;20026;-33
2022/03/31 00:49:36;;;;;;;1.33;1.10;;;;;;;26.99;28.11;94752.94;4954660;28;20022;-35
2022/03/31 00:52:01;;;;;;;1.05;0.95;;;;;;;26.99;28.08;94752.09;4948545;28;20394;-29
2022/03/31 00:54:27;;;;;;;1.08;0.98;;;;;;;26.98;28.13;94748.66;4948063;28;20106;-33
2022/03/31 00:56:53;;;;;;;1.50;1.00;;;;;;;26.98;28.20;94750.44;4953802;28;20021;-34
2022/03/31 00:59:18;;;;;;;1.25;1.10;;;;;;;26.98;28.04;94745.19;4945255;28;20039;-29
2022/03/31 01:01:45;;;;;;;1.60;1.08;;;;;;;26.97;27.77;94743.53;4948293;28;20026;-33
2022/03/31 01:04:10;;;;;;;1.13;1.02;;;;;;;26.97;28.00;94733.84;4953693;28;20049;-31
2022/03/31 01:06:36;;;;;;;1.10;0.90;;;;;;;26.97;28.15;94730.41;4952716;28;20027;-36
2022/03/31 01:09:02;;;;;;;1.33;0.90;;;;;;;26.97;28.11;94727.78;4942341;28;20112;-30
2022/03/31 01:11:29;;;;;;;1.38;1.02;;;;;;;26.97;27.99;94731.22;4947503;28;20029;-33
2022/03/31 01:13:55;;;;;;;1.38;1.20;;;;;;;26.96;27.81;94728.75;4950741;28;20031;-35
2022/03/31 01:16:20;;;;;;;1.10;1.00;;;;;;;26.96;28.10;94726.13;4948676;28;20038;-32
2022/03/31 01:18:45;;;;;;;1.58;0.98;;;;;;;26.95;27.86;94719.19;4954010;28;20441;-32
2022/03/31 01:21:11;;;;;;;2.90;1.00;;;;;;;26.96;27.90;94726.94;4950203;28;20395;-33
2022/03/31 01:23:36;;;;;;;1.88;1.20;;;;;;;26.95;27.70;94720.03;4950666;28;20671;-37
2022/03/31 01:26:05;;;;;;;1.88;1.10;;;;;;;26.95;27.96;94722.66;4946657;28;20031;-36
2022/03/31 01:28:30;;;;;;;1.67;1.10;;;;;;;26.95;28.16;94719.19;4947251;28;20406;-35
2022/03/31 01:30:56;;;;;;;0.98;0.85;;;;;;;26.95;28.11;94716.56;4952959;28;20041;-27
2022/03/31 01:33:21;;;;;;;0.68;0.68;;;;;;;26.95;28.10;94716.56;4950931;28;20125;-28
2022/03/31 01:35:47;;;;;;;2.85;1.00;;;;;;;26.94;28.08;94709.63;4952943;28;20030;-35
2022/03/31 01:38:12;;;;;;;1.65;1.00;;;;;;;26.94;28.14;94714.88;4945093;28;20026;-36
2022/03/31 01:40:38;;;;;;;1.33;1.00;;;;;;;26.94;27.98;94712.25;4936574;28;20552;-36
2022/03/31 01:43:03;;;;;;;3.60;0.77;;;;;;;26.93;28.09;94714.03;4953035;28;20030;-35
2022/03/31 01:45:28;;;;;;;1.70;0.70;;;;;;;26.94;27.91;94701.72;4954912;28;20042;-35
2022/03/31 01:47:54;;;;;;;1.45;0.75;;;;;;;26.93;28.02;94700.88;4951104;28;20089;-31
2022/03/31 01:50:19;;;;;;;1.30;0.80;;;;;;;26.93;28.12;94694.81;4954109;28;20027;-29
2022/03/31 01:52:45;;;;;;;1.50;0.82;;;;;;;26.93;27.89;94694.81;4904213;28;20920;-30
2022/03/31 01:55:10;;;;;;;1.05;0.80;;;;;;;26.92;27.94;94688.72;4912278;28;20031;-34
2022/03/31 01:57:36;;;;;;;1.00;0.70;;;;;;;26.92;28.02;94677.41;4945705;28;20027;-34
2022/03/31 02:00:02;;;;;;;1.40;0.80;;;;;;;26.92;28.16;94685.28;4946628;28;20066;-37
2022/03/31 02:02:28;;;;;;;1.50;0.85;;;;;;;26.92;27.95;94677.41;4943457;28;20042;-36
2022/03/31 02:04:53;;;;;;;1.30;1.02;;;;;;;26.92;27.93;94683.47;4916718;28;20046;-35
2022/03/31 02:07:19;;;;;;;1.13;0.90;;;;;;;26.92;27.89;94675.59;4911399;28;20517;-33
2022/03/31 02:09:44;;;;;;;1.08;0.80;;;;;;;26.92;28.01;94675.59;4908933;28;20154;-28
2022/03/31 02:12:10;;;;;;;0.80;0.80;;;;;;;26.92;27.92;94666.88;4922213;28;20034;-32
2022/03/31 02:14:37;;;;;;;1.35;0.90;;;;;;;26.92;27.93;94666.88;4941915;28;20111;-32
2022/03/31 02:17:09;;;;;;;1.00;0.90;;;;;;;26.92;27.91;94667.69;4939492;28;20034;-32
2022/03/31 02:19:34;;;;;;;1.77;1.02;;;;;;;26.91;27.94;94662.56;4950112;28;20482;-34
2022/03/31 02:22:00;;;;;;;1.38;1.05;;;;;;;26.90;28.24;94661.75;4942904;28;20097;-31
2022/03/31 02:24:25;;;;;;;2.08;0.88;;;;;;;26.90;27.95;94663.56;4912936;28;20110;-35
2022/03/31 02:26:51;;;;;;;1.95;0.95;;;;;;;26.91;27.70;94665.19;4907702;28;20031;-37
2022/03/31 02:29:17;;;;;;;2.05;0.82;;;;;;;26.90;27.93;94653.03;4908503;28;20129;-29
2022/03/31 02:31:43;;;;;;;2.17;1.10;;;;;;;26.90;27.94;94658.28;4904200;28;20042;-27
2022/03/31 02:34:08;;;;;;;1.17;0.80;;;;;;;26.91;28.14;94652.06;4906940;28;20177;-30
2022/03/31 02:36:33;;;;;;;1.13;1.00;;;;;;;26.91;27.95;94646.81;4909931;28;20030;-31
2022/03/31 02:38:59;;;;;;;0.90;0.90;;;;;;;26.88;27.81;94643.50;4908659;28;20039;-34
2022/03/31 02:41:24;;;;;;;1.35;0.95;;;;;;;26.88;27.82;94646.13;4937545;28;20436;-32
2022/03/31 02:43:49;;;;;;;1.08;0.77;;;;;;;26.88;27.70;94640.88;4945820;28;20065;-32
2022/03/31 02:46:15;;;;;;;0.95;0.80;;;;;;;26.88;28.07;94640.03;4946095;28;20034;-35
2022/03/31 02:48:40;;;;;;;1.58;1.00;;;;;;;26.87;27.99;94636.59;4938412;28;20035;-35
2022/03/31 02:51:06;;;;;;;1.38;1.02;;;;;;;26.87;27.96;94631.34;4945143;28;20742;-34
2022/03/31 02:56:15;;;;;;;1.00;0.80;;;;;;;26.87;27.83;94622.63;4945183;28;20081;-35
2022/03/31 02:58:41;;;;;;;0.85;0.85;;;;;;;26.86;27.99;94626.22;4948920;28;20589;-35
2022/03/31 03:01:06;;;;;;;1.58;0.82;;;;;;;26.85;28.06;94624.56;4938591;28;22743;-35
2022/03/31 03:03:32;;;;;;;0.80;0.70;;;;;;;26.85;27.82;94622.75;4907526;28;20039;-35
2022/03/31 03:05:58;;;;;;;1.35;0.90;;;;;;;26.84;27.90;94613.22;4942913;28;20046;-38
2022/03/31 03:08:26;;;;;;;1.10;0.88;;;;;;;26.83;27.93;94616.81;4943552;28;20027;-33
2022/03/31 03:10:52;;;;;;;0.98;0.85;;;;;;;26.84;28.00;94618.47;4951396;28;20109;-36
2022/03/31 03:13:18;;;;;;;1.08;0.80;;;;;;;26.84;27.94;94613.22;4945587;28;20051;-32
2022/03/31 03:15:43;;;;;;;0.63;0.63;;;;;;;26.84;27.85;94612.38;4946888;28;20041;-33
2022/03/31 03:18:09;;;;;;;0.60;0.60;;;;;;;26.82;28.17;94604.66;4943259;28;20639;-33
2022/03/31 03:20:35;;;;;;;0.60;0.60;;;;;;;26.82;28.07;94609.91;4943995;28;20031;-31
2022/03/31 03:23:00;;;;;;;0.95;0.60;;;;;;;26.83;27.80;94605.47;4945670;28;20026;-31
2022/03/31 03:25:25;;;;;;;0.80;0.75;;;;;;;26.82;27.72;94604.66;4946985;28;20192;-34
2022/03/31 03:27:51;;;;;;;1.13;0.90;;;;;;;26.82;27.72;94599.41;4939693;28;20054;-32
2022/03/31 03:30:21;;;;;;;1.63;1.05;;;;;;;26.83;27.76;94600.22;4947774;28;20027;-34
2022/03/31 03:32:47;;;;;;;1.35;0.80;;;;;;;26.81;27.96;94602.97;4942668;28;20090;-35
2022/03/31 03:35:13;;;;;;;0.70;0.70;;;;;;;26.82;27.69;94602.03;4944255;28;20039;-35
2022/03/31 03:37:39;;;;;;;1.67;0.70;;;;;;;26.81;28.07;94605.59;4944113;28;20416;-31
2022/03/31 03:40:05;;;;;;;1.58;1.15;;;;;;;26.81;27.94;94597.72;4946634;28;20027;-33
2022/03/31 03:42:31;;;;;;;0.93;0.90;;;;;;;26.81;27.89;94596.91;4943282;28;20035;-31
2022/03/31 03:44:57;;;;;;;0.68;0.65;;;;;;;26.78;27.78;94594.56;4944856;28;20122;-34
2022/03/31 03:47:22;;;;;;;0.63;0.63;;;;;;;26.80;27.89;94605.75;4944342;28;20031;-38
2022/03/31 03:49:48;;;;;;;1.70;1.00;;;;;;;26.80;27.81;94600.50;4940835;28;20798;-32
2022/03/31 03:52:14;;;;;;;1.23;0.63;;;;;;;26.80;27.85;94598.69;4946851;28;20044;-36
2022/03/31 03:54:39;;;;;;;1.48;0.73;;;;;;;26.79;27.89;94604.94;4944363;28;20039;-34
2022/03/31 03:57:05;;;;;;;1.02;0.80;;;;;;;26.79;27.99;94602.31;4952310;28;20450;-37
2022/03/31 03:59:31;;;;;;;1.50;0.70;;;;;;;26.78;27.93;94598.03;4945598;28;20050;-32
2022/03/31 04:01:56;;;;;;;0.90;0.90;;;;;;;26.78;28.13;94590.16;4956536;28;20031;-34
2022/03/31 04:04:21;;;;;;;0.70;0.70;;;;;;;26.78;27.85;94595.41;4950922;28;20677;-29
2022/03/31 04:06:47;;;;;;;0.70;0.70;;;;;;;26.77;27.96;94591.09;4947374;28;20689;-34
2022/03/31 04:09:12;;;;;;;1.70;1.30;;;;;;;26.77;27.97;94591.09;4947643;28;20038;-31
2022/03/31 04:11:38;;;;;;;0.93;0.80;;;;;;;26.77;28.07;94593.72;4950184;28;20781;-35
2022/03/31 04:14:03;;;;;;;0.75;0.75;;;;;;;26.77;28.03;94588.47;4943727;28;20375;-36
2022/03/31 04:16:29;;;;;;;1.00;0.90;;;;;;;26.76;27.94;94589.44;4957002;28;20041;-33
2022/03/31 04:18:54;;;;;;;0.85;0.68;;;;;;;26.76;27.94;94584.19;4947335;28;20136;-36
2022/03/31 04:21:19;;;;;;;1.60;0.80;;;;;;;26.76;28.09;94583.38;4946664;28;20035;-31
2022/03/31 04:23:45;;;;;;;1.00;0.80;;;;;;;26.76;27.77;94594.69;4946699;28;20409;-36
2022/03/31 04:26:10;;;;;;;1.15;0.88;;;;;;;26.76;28.03;94592.06;4955210;28;20578;-33
2022/03/31 04:28:36;;;;;;;0.95;0.80;;;;;;;26.76;27.76;94594.69;4960199;28;20026;-34
2022/03/31 04:31:01;;;;;;;0.70;0.68;;;;;;;26.76;28.04;94588.63;4956803;28;20038;-34
2022/03/31 04:33:28;;;;;;;0.77;0.70;;;;;;;26.76;27.82;94583.38;4954382;28;20030;-32
2022/03/31 04:35:54;;;;;;;0.60;0.60;;;;;;;26.76;27.99;94583.38;4948108;28;20998;-36
2022/03/31 04:38:20;;;;;;;0.85;0.85;;;;;;;26.74;27.99;94576.44;4952973;28;20038;-33
2022/03/31 04:40:45;;;;;;;1.25;0.80;;;;;;;26.75;27.95;94579.91;4946736;28;20477;-34
2022/03/31 04:43:10;;;;;;;1.98;0.80;;;;;;;26.75;28.03;94582.53;4951184;28;20026;-33
2022/03/31 04:45:36;;;;;;;3.03;0.80;;;;;;;26.74;27.72;94575.63;4952043;28;20037;-33
2022/03/31 04:48:01;;;;;;;0.93;0.70;;;;;;;26.75;27.76;94579.91;4958845;28;20035;-33
2022/03/31 04:50:27;;;;;;;0.80;0.80;;;;;;;26.75;27.89;94585.16;4956526;28;20106;-34
2022/03/31 04:52:52;;;;;;;0.85;0.70;;;;;;;26.74;27.84;94575.63;4954884;28;20062;-32
2022/03/31 04:55:18;;;;;;;0.77;0.70;;;;;;;26.73;27.92;94584.47;4948676;28;20054;-36
2022/03/31 04:57:43;;;;;;;1.23;0.68;;;;;;;26.73;27.84;94573.94;4943630;28;20039;-33
2022/03/31 05:00:09;;;;;;;0.60;0.60;;;;;;;26.73;27.88;94577.41;4951736;28;20746;-33
2022/03/31 05:02:34;;;;;;;1.30;0.80;;;;;;;26.74;27.93;94580.88;4952581;28;20117;-36
2022/03/31 05:05:00;;;;;;;0.85;0.85;;;;;;;26.73;28.04;94579.22;4945594;28;20023;-30
2022/03/31 05:07:25;;;;;;;0.82;0.82;;;;;;;26.73;27.89;94579.22;4940943;28;20522;-34
2022/03/31 05:09:51;;;;;;;0.85;0.60;;;;;;;26.72;27.72;94573.16;4946358;28;20026;-36
2022/03/31 05:12:16;;;;;;;0.80;0.80;;;;;;;26.72;27.85;94582.81;4948110;28;20027;-33
2022/03/31 05:14:42;;;;;;;0.73;0.68;;;;;;;26.72;28.04;94577.56;4951987;28;20031;-37
2022/03/31 05:17:07;;;;;;;0.82;0.63;;;;;;;26.72;27.78;94575.78;4948659;28;20073;-34
2022/03/31 05:19:33;;;;;;;0.95;0.70;;;;;;;26.71;28.00;94581.16;4946281;28;20038;-32
2022/03/31 05:21:59;;;;;;;0.63;0.60;;;;;;;26.72;27.70;94577.56;4949049;28;20042;-34
2022/03/31 05:24:24;;;;;;;0.70;0.70;;;;;;;26.71;27.75;94571.50;4943229;28;20375;-34
2022/03/31 05:26:53;;;;;;;0.98;0.80;;;;;;;26.71;27.89;94575.91;4947797;28;20165;-36
2022/03/31 05:29:19;;;;;;;0.60;0.60;;;;;;;26.71;27.78;94575.91;4947073;28;20035;-35
2022/03/31 05:31:45;;;;;;;0.80;0.73;;;;;;;26.71;28.18;94579.38;4950829;28;20485;-37
2022/03/31 05:34:11;;;;;;;0.60;0.60;;;;;;;26.70;28.00;94574.25;4943241;28;20038;-31
2022/03/31 05:36:36;;;;;;;0.63;0.60;;;;;;;26.70;27.95;94569.81;4943292;28;20389;-33
2022/03/31 05:39:03;;;;;;;0.70;0.70;;;;;;;26.69;27.90;94576.03;4951716;28;20038;-33
2022/03/31 05:41:28;;;;;;;0.68;0.68;;;;;;;26.69;27.80;94575.22;4954679;28;20437;-38
2022/03/31 05:43:53;;;;;;;0.70;0.70;;;;;;;26.69;27.75;94577.88;4942890;28;20028;-33
2022/03/31 05:46:21;;;;;;;0.85;0.70;;;;;;;26.69;27.72;94578.66;4953143;28;20038;-34
2022/03/31 05:48:46;;;;;;;0.70;0.57;;;;;;;26.70;28.04;94582.13;4945296;28;20030;-34
2022/03/31 05:51:12;;;;;;;0.70;0.70;;;;;;;26.69;28.03;94583.13;4945146;28;20038;-31
2022/03/31 05:53:37;;;;;;;0.93;0.70;;;;;;;26.68;27.96;94582.28;4943190;28;20027;-34
2022/03/31 05:56:03;;;;;;;0.55;0.55;;;;;;;26.68;27.72;94578.81;4943349;28;20027;-32
2022/03/31 05:58:28;;;;;;;0.93;0.82;;;;;;;26.68;28.21;94570.94;4950840;28;20031;-37
2022/03/31 06:00:54;;;;;;;0.88;0.70;;;;;;;26.68;27.71;94576.19;4955860;28;20034;-37
2022/03/31 06:03:22;;;;;;;0.93;0.60;;;;;;;26.68;28.04;94576.19;4947834;28;20042;-32
2022/03/31 06:05:48;;;;;;;0.70;0.70;;;;;;;26.67;27.81;94575.38;4939586;28;20081;-34
2022/03/31 06:08:14;;;;;;;0.95;0.80;;;;;;;26.67;28.17;94579.78;4946892;28;20080;-35
2022/03/31 06:10:39;;;;;;;0.63;0.63;;;;;;;26.67;27.88;94569.28;4948661;28;20031;-31
2022/03/31 06:13:05;;;;;;;4.03;0.60;;;;;;;26.67;28.04;94585.03;4941967;28;20055;-35
2022/03/31 06:15:30;;;;;;;0.60;0.60;;;;;;;26.65;27.95;94573.84;4940673;28;20031;-37
2022/03/31 06:17:56;;;;;;;0.98;0.68;;;;;;;26.67;27.76;94577.16;4943685;28;20024;-33
2022/03/31 06:20:21;;;;;;;0.70;0.70;;;;;;;26.67;27.99;94579.78;4954705;28;20031;-35
2022/03/31 06:22:46;;;;;;;1.52;0.95;;;;;;;26.67;28.04;94574.53;4949813;28;20035;-31
2022/03/31 06:25:12;;;;;;;1.10;1.00;;;;;;;26.66;27.75;94572.88;4947618;28;20590;-34
2022/03/31 06:27:38;;;;;;;1.08;0.95;;;;;;;26.65;28.02;94571.22;4946348;28;20126;-37
2022/03/31 06:30:04;;;;;;;6.68;3.28;;;;;;;26.65;28.01;94576.47;4943452;28;20955;-35
2022/03/31 06:32:29;;;;;;;14.98;2.03;;;;;;;26.65;28.01;94571.22;4941913;28;20121;-36
2022/03/31 06:34:55;;;;;;;10.23;2.63;;;;;;;26.65;28.12;94568.59;4949996;28;20393;-33
2022/03/31 06:37:20;;;;;;;5.57;2.40;;;;;;;26.65;28.22;94565.97;4933669;28;20037;-33
2022/03/31 06:39:46;;;;;;;8.98;4.35;;;;;;;26.64;28.07;94564.28;4941853;28;20146;-33
2022/03/31 06:42:11;;;;;;;10.52;3.20;;;;;;;26.63;27.79;94567.91;4937110;28;20690;-34
2022/03/31 06:44:37;;;;;;;5.72;2.38;;;;;;;26.60;27.81;94564.59;4937099;28;20026;-32
2022/03/31 06:47:03;;;;;;;4.00;2.03;;;;;;;26.60;27.89;94569.84;4936241;28;20433;-37
2022/03/31 06:49:28;;;;;;;4.65;2.10;;;;;;;26.59;27.87;94570.78;4941469;28;20794;-33
2022/03/31 06:51:55;;;;;;;5.18;2.13;;;;;;;26.61;27.64;94575.91;4944385;28;20085;-36
2022/03/31 06:54:20;;;;;;;6.65;2.25;;;;;;;26.59;27.59;94570.78;4942312;28;20513;-36
2022/03/31 06:56:47;;;;;;;5.15;2.42;;;;;;;26.59;27.63;94573.44;4944880;28;20035;-37
2022/03/31 06:59:12;;;;;;;6.55;2.30;;;;;;;26.59;27.87;94573.44;4945084;28;20023;-32
2022/03/31 07:01:38;;;;;;;6.25;2.33;;;;;;;26.60;28.08;94569.00;4951307;28;20046;-35
2022/03/31 07:04:06;;;;;;;10.10;2.80;;;;;;;26.59;27.69;94578.69;4941630;28;20042;-33
2022/03/31 07:06:32;;;;;;;7.13;2.80;;;;;;;26.59;27.70;94578.69;4942556;28;20031;-37
2022/03/31 07:08:57;;;;;;;6.32;2.80;;;;;;;26.59;27.75;94568.16;4938024;28;20073;-32
2022/03/31 07:11:23;;;;;;;9.15;3.20;;;;;;;26.58;27.65;94563.91;4938226;28;20031;-33
2022/03/31 07:13:49;;;;;;;6.32;3.08;;;;;;;26.59;27.83;94562.91;4944476;28;20628;-35
2022/03/31 07:16:16;;;;;;;4.70;2.70;;;;;;;26.58;27.64;94561.28;4939493;28;20050;-31
2022/03/31 07:18:42;;;;;;;7.55;3.03;;;;;;;26.59;27.59;94568.16;4940081;28;20031;-35
2022/03/31 07:21:08;;;;;;;8.20;3.00;;;;;;;26.59;27.63;94562.09;4942203;28;20032;-37
2022/03/31 07:23:33;;;;;;;6.70;2.72;;;;;;;26.59;27.53;94562.09;4943240;28;20038;-34
2022/03/31 07:25:59;;;;;;;5.30;2.65;;;;;;;26.60;27.92;94569.84;4940316;28;20031;-36
2022/03/31 07:28:24;;;;;;;7.68;2.70;;;;;;;26.59;27.59;94562.91;4934263;28;20046;-31
2022/03/31 07:30:50;;;;;;;5.18;2.70;;;;;;;26.59;27.64;94564.72;4941334;28;20437;-33
2022/03/31 07:33:15;;;;;;;7.80;2.40;;;;;;;26.60;27.79;94561.13;4940861;28;20043;-35
2022/03/31 07:35:42;;;;;;;5.25;2.22;;;;;;;26.59;27.76;94560.28;4937763;28;20034;-32
2022/03/31 07:38:08;;;;;;;5.22;2.53;;;;;;;26.59;27.83;94555.03;4941133;28;20655;-34
2022/03/31 07:40:35;;;;;;;5.25;2.50;;;;;;;26.59;27.88;94547.16;4937929;28;20038;-34
2022/03/31 07:43:02;;;;;;;4.97;2.28;;;;;;;26.59;27.79;94552.41;4948632;28;20023;-36
2022/03/31 07:45:28;;;;;;;6.35;2.65;;;;;;;26.60;27.79;94555.88;4942821;28;20136;-28
2022/03/31 07:47:54;;;;;;;6.28;2.55;;;;;;;26.59;27.69;94546.34;4941377;28;20077;-33
2022/03/31 07:50:19;;;;;;;5.78;2.40;;;;;;;26.58;28.05;94550.75;4944006;28;20812;-35
2022/03/31 07:52:45;;;;;;;3.42;2.13;;;;;;;26.59;27.94;94555.03;4945010;28;20026;-31
2022/03/31 07:55:11;;;;;;;6.10;2.50;;;;;;;26.60;27.67;94554.09;4941959;28;20043;-33
2022/03/31 07:57:38;;;;;;;6.32;2.63;;;;;;;26.60;27.96;94558.50;4944384;28;20046;-36
2022/03/31 08:00:07;;;;;;;6.00;2.88;;;;;;;26.59;27.70;94552.41;4942000;28;20026;-33
2022/03/31 08:02:32;;;;;;;4.45;2.67;;;;;;;26.59;27.91;94552.41;4940692;28;20070;-28
2022/03/31 08:04:58;;;;;;;4.55;2.65;;;;;;;26.59;27.70;94547.16;4937949;28;20023;-33
2022/03/31 08:07:23;;;;;;;4.93;3.00;;;;;;;26.59;28.08;94544.53;4938250;28;20038;-35
2022/03/31 08:09:49;;;;;;;4.90;2.28;;;;;;;26.60;27.90;94538.34;4939537;28;20109;-37
2022/03/31 08:12:14;;;;;;;5.50;2.65;;;;;;;26.60;27.68;94534.88;4938654;28;20509;-33
2022/03/31 08:14:39;;;;;;;5.53;2.50;;;;;;;26.59;27.63;94531.41;4944013;28;20023;-33
2022/03/31 08:17:05;;;;;;;5.50;2.35;;;;;;;26.59;27.91;94539.28;4939954;28;20038;-34
2022/03/31 08:19:32;;;;;;;4.55;2.33;;;;;;;26.60;27.67;94535.69;4942141;28;20473;-36
2022/03/31 08:21:58;;;;;;;4.75;2.97;;;;;;;26.60;27.80;94537.50;4938415;28;20410;-34
2022/03/31 08:24:23;;;;;;;5.35;2.83;;;;;;;26.59;27.69;94536.66;4938189;28;20031;-35
2022/03/31 08:26:50;;;;;;;7.60;2.80;;;;;;;26.60;27.78;94535.69;4934416;28;21148;-36
2022/03/31 08:29:16;;;;;;;4.63;2.47;;;;;;;26.59;27.75;94536.66;4940466;28;20077;-34
2022/03/31 08:31:42;;;;;;;12.93;2.80;;;;;;;26.55;28.03;94535.28;4930898;28;20031;-31
2022/03/31 08:34:07;;;;;;;9.15;5.05;;;;;;;26.59;27.74;94538.47;4941255;28;20062;-31
2022/03/31 08:36:32;;;;;;;31.50;12.38;;;;;;;26.46;26.55;94530.88;4947061;28;20110;-30
2022/03/31 08:38:58;;;;;;;30.42;12.30;;;;;;;26.34;25.88;94540.69;4946068;28;20042;-30
2022/03/31 08:41:24;;;;;;;18.48;12.23;;;;;;;26.13;25.60;94539.03;4950766;28;20042;-33
2022/03/31 08:43:50;;;;;;;19.30;12.75;;;;;;;25.91;25.15;94542.75;4942856;28;20609;-30
2022/03/31 08:46:15;;;;;;;14.45;12.95;;;;;;;25.68;24.88;94537.75;4936459;28;20055;-33
2022/03/31 08:48:41;;;;;;;12.55;10.43;;;;;;;25.50;25.33;94534.94;4941865;28;20507;-29
2022/03/31 08:51:07;;;;;;;14.00;9.77;;;;;;;25.38;25.44;94531.59;4941615;28;20039;-36
2022/03/31 08:53:33;;;;;;;15.70;9.25;;;;;;;25.31;25.72;94526.06;4934533;28;21317;-33
2022/03/31 08:55:58;;;;;;;14.10;8.48;;;;;;;25.27;25.85;94520.25;4940595;28;20042;-41
2022/03/31 08:58:23;;;;;;;10.30;6.93;;;;;;;25.26;25.93;94518.59;4942927;28;20876;-32
2022/03/31 09:00:49;;;;;;;7.50;5.13;;;;;;;25.29;25.93;94520.13;4950159;28;20046;-32
2022/03/31 09:03:16;;;;;;;8.90;5.15;;;;;;;25.33;26.01;94518.06;4942692;28;20015;-36
2022/03/31 09:05:49;;;;;;;7.63;4.70;;;;;;;25.37;26.20;94519.44;4937798;28;20121;-34
2022/03/31 09:08:16;;;;;;;10.88;4.70;;;;;;;25.42;26.41;94523.34;4937588;28;20026;-32
2022/03/31 09:10:44;;;;;;;10.93;4.20;;;;;;;25.48;26.36;94511.47;4934760;28;20026;-36
2022/03/31 09:13:23;;;;;;;6.93;3.95;;;;;;;25.53;26.37;94514.53;4934242;28;20041;-33
2022/03/31 09:15:50;;;;;;;7.13;3.80;;;;;;;25.59;26.46;94512.34;4939535;28;20229;-35
2022/03/31 09:18:19;;;;;;;7.90;3.30;;;;;;;25.64;26.66;94504.91;4930611;28;20041;-37
2022/03/31 09:20:46;;;;;;;5.85;3.30;;;;;;;25.67;26.54;94505.44;4941971;28;20039;-32
2022/03/31 09:23:19;;;;;;;6.18;3.30;;;;;;;25.72;26.62;94506.84;4950206;28;20027;-36
2022/03/31 09:25:44;;;;;;;11.02;3.20;;;;;;;25.76;26.55;94498.56;4960042;28;20023;-32
2022/03/31 09:28:39;;;;;;;5.65;3.00;;;;;;;25.81;26.73;94501.59;4958626;28;20136;-34
2022/03/31 09:31:08;;;;;;;7.97;3.20;;;;;;;25.85;26.87;94507.41;4957249;28;20050;-33
2022/03/31 09:33:39;;;;;;;5.47;3.55;;;;;;;25.89;26.80;94507.97;4950911;28;20597;-35
2022/03/31 09:36:12;;;;;;;5.28;2.92;;;;;;;25.93;26.74;94509.34;4953906;28;20050;-32
2022/03/31 09:38:38;;;;;;;6.07;2.70;;;;;;;25.95;26.88;94507.41;4953575;28;20058;-33
2022/03/31 09:41:40;;;;;;;8.13;3.05;;;;;;;25.99;26.92;94511.41;4956364;28;20476;-34
2022/03/31 09:44:06;;;;;;;6.22;2.50;;;;;;;26.02;26.88;94508.53;4973418;28;20120;-34
2022/03/31 09:46:33;;;;;;;5.85;2.40;;;;;;;26.04;26.76;94500.47;4960947;28;20049;-33
2022/03/31 09:49:09;;;;;;;7.63;3.00;;;;;;;26.07;26.87;94502.84;4958416;28;20045;-37
2022/03/31 09:51:34;;;;;;;5.68;2.70;;;;;;;26.09;27.04;94501.72;4962493;28;20030;-35
2022/03/31 09:53:59;;;;;;;5.13;3.55;;;;;;;26.10;27.07;94499.94;4955205;28;20038;-32
2022/03/31 09:56:25;;;;;;;9.30;4.97;;;;;;;26.13;26.89;94490.97;4943618;28;20030;-31
2022/03/31 09:58:50;;;;;;;10.77;4.90;;;;;;;26.13;26.74;94493.59;4946955;28;20700;-36
2022/03/31 10:01:17;;;;;;;10.77;4.05;;;;;;;26.14;26.89;94493.44;4954779;28;20029;-37
2022/03/31 10:03:42;;;;;;;7.05;5.22;;;;;;;26.15;26.92;94486.38;4943427;28;20109;-33
2022/03/31 10:06:08;;;;;;;8.88;5.05;;;;;;;26.16;26.93;94494.13;4948025;28;20057;-35
2022/03/31 10:08:37;;;;;;;6.63;5.20;;;;;;;26.16;27.04;94488.06;4946621;28;20625;-34
2022/03/31 10:11:03;;;;;;;10.27;5.00;;;;;;;26.16;27.05;94488.06;4948438;28;20665;-38
2022/03/31 10:13:32;;;;;;;6.95;4.75;;;;;;;26.16;27.03;94488.06;4944640;28;20153;-36
2022/03/31 10:16:08;;;;;;;6.72;3.90;;;;;;;26.17;27.04;94489.72;4944055;28;20038;-32
2022/03/31 10:18:35;;;;;;;10.02;4.00;;;;;;;26.17;27.06;94481.84;4949004;28;20401;-32
2022/03/31 10:21:00;;;;;;;9.27;5.00;;;;;;;26.18;27.20;94481.69;4943176;28;20037;-35
2022/03/31 10:26:32;;;;;;;7.47;5.05;;;;;;;26.19;27.04;94482.50;4945236;28;20046;-32
2022/03/31 10:28:59;;;;;;;7.40;4.00;;;;;;;26.15;27.17;94470.63;4950679;28;20398;-33
2022/03/31 10:31:38;;;;;;;7.45;4.03;;;;;;;26.18;27.27;94479.06;4947158;28;20094;-35
2022/03/31 10:34:04;;;;;;;5.63;4.72;;;;;;;26.20;27.30;94471.06;4949225;28;20046;-34
2022/03/31 10:36:48;;;;;;;6.10;4.38;;;;;;;26.20;27.19;94476.31;4963122;28;20061;-35
2022/03/31 10:39:21;;;;;;;6.38;4.57;;;;;;;26.20;27.27;94468.44;4959272;28;20026;-37
2022/03/31 10:41:47;;;;;;;6.65;4.80;;;;;;;26.19;27.45;94470.22;4967389;28;20030;-36
2022/03/31 10:44:12;;;;;;;6.60;4.60;;;;;;;26.21;27.45;94470.09;4965118;28;20062;-31
2022/03/31 10:46:41;;;;;;;7.13;5.10;;;;;;;26.21;27.56;94470.09;4955499;28;20859;-33
2022/03/31 10:49:12;;;;;;;11.45;5.35;;;;;;;26.21;27.69;94465.66;4960360;28;20026;-31
2022/03/31 10:51:39;;;;;;;7.85;5.35;;;;;;;26.21;27.75;94470.09;4948124;28;20038;-29
2022/03/31 10:54:05;;;;;;;11.48;4.80;;;;;;;26.21;27.61;94464.84;4949294;28;20038;-36
2022/03/31 10:56:31;;;;;;;6.07;3.47;;;;;;;26.23;27.68;94468.13;4961457;28;20035;-38
2022/03/31 10:58:58;;;;;;;8.45;2.80;;;;;;;26.25;27.48;94454.88;4960595;28;20034;-34
2022/03/31 11:01:26;;;;;;;8.60;3.25;;;;;;;26.24;27.66;94461.94;4961125;28;20056;-37
2022/03/31 11:03:59;;;;;;;9.25;2.80;;;;;;;26.27;27.67;94459.03;4957375;28;20801;-36
2022/03/31 11:06:24;;;;;;;7.95;2.95;;;;;;;26.28;27.66;94468.56;4963796;28;20046;-29
2022/03/31 11:08:50;;;;;;;8.80;2.92;;;;;;;26.29;27.87;94457.13;4963585;28;20026;-38
2022/03/31 11:11:22;;;;;;;9.23;3.20;;;;;;;26.33;27.96;94458.50;4963952;28;20058;-37
2022/03/31 11:13:48;;;;;;;7.20;3.17;;;;;;;26.34;27.91;94454.91;4968011;28;20038;-31
2022/03/31 11:16:15;;;;;;;10.02;3.00;;;;;;;26.35;27.96;94453.91;4961760;28;20042;-37
2022/03/31 11:18:41;;;;;;;6.68;3.03;;;;;;;26.38;28.01;94446.75;4963845;28;20116;-36
2022/03/31 11:21:07;;;;;;;6.43;3.20;;;;;;;26.39;28.03;94440.50;4963711;28;20031;-36
2022/03/31 11:23:32;;;;;;;4.40;2.58;;;;;;;26.41;27.99;94438.56;4963988;28;20592;-33
2022/03/31 11:25:58;;;;;;;7.70;3.00;;;;;;;26.43;28.07;94439.25;4968833;28;20035;-36
2022/03/31 11:28:27;;;;;;;5.25;2.60;;;;;;;26.45;28.04;94437.31;4962980;28;20839;-33
2022/03/31 11:30:54;;;;;;;7.78;2.75;;;;;;;26.45;28.08;94435.53;4966738;28;20026;-34
2022/03/31 11:33:19;;;;;;;8.98;3.28;;;;;;;26.47;28.04;94438.00;4961775;28;20026;-33